createdAt,value
2019-03-28T00:00:40.697Z,100744.51
2019-03-28T00:03:14.729Z,100745.67
2019-03-28T00:05:47.107Z,100740.34
2019-03-28T00:08:19.452Z,100748.42
2019-03-28T00:10:52.266Z,100748.53
2019-03-28T00:13:24.541Z,100750.11
2019-03-28T00:15:56.918Z,100749.20
2019-03-28T00:18:29.362Z,100755.94
2019-03-28T00:21:02.881Z,100752.23
2019-03-28T00:24:03.136Z,100755.37
2019-03-28T00:26:35.428Z,100753.60
2019-03-28T00:29:07.763Z,100753.04
2019-03-28T00:31:40.065Z,100750.13
2019-03-28T00:34:12.407Z,100755.19
2019-03-28T00:36:44.731Z,100752.17
2019-03-28T00:39:17.067Z,100755.83
2019-03-28T00:41:49.424Z,100753.44
2019-03-28T00:44:21.712Z,100750.95
2019-03-28T00:46:54.453Z,100753.78
2019-03-28T00:49:26.772Z,100759.95
2019-03-28T00:51:59.192Z,100752.89
2019-03-28T00:54:31.527Z,100751.72
2019-03-28T00:57:03.945Z,100753.72
2019-03-28T00:59:37.423Z,100756.13
2019-03-28T01:02:09.786Z,100753.19
2019-03-28T01:04:43.437Z,100751.98
2019-03-28T01:07:15.808Z,100753.57
2019-03-28T01:09:48.105Z,100750.34
2019-03-28T01:12:20.439Z,100753.27
2019-03-28T01:14:52.719Z,100743.41
2019-03-28T01:17:25.265Z,100746.29
2019-03-28T01:19:57.577Z,100743.30
2019-03-28T01:22:29.900Z,100744.91
2019-03-28T01:25:02.229Z,100741.65
2019-03-28T01:27:35.563Z,100741.25
2019-03-28T01:30:08.364Z,100750.16
2019-03-28T01:32:40.675Z,100756.64
2019-03-28T01:35:13.040Z,100747.94
2019-03-28T01:37:45.377Z,100744.95
2019-03-28T01:40:17.731Z,100751.80
2019-03-28T01:42:50.323Z,100754.81
2019-03-28T01:45:22.676Z,100757.67
2019-03-28T01:47:55.010Z,100755.22
2019-03-28T01:50:27.440Z,100752.80
2019-03-28T01:52:59.787Z,100750.44
2019-03-28T01:55:32.082Z,100743.16
2019-03-28T01:58:05.223Z,100737.61
2019-03-28T02:01:12.292Z,100733.82
2019-03-28T02:03:44.869Z,100728.05
2019-03-28T02:06:17.212Z,100728.01
2019-03-28T02:08:49.567Z,100714.67
2019-03-28T02:11:21.911Z,100717.73
2019-03-28T02:13:54.181Z,100717.16
2019-03-28T02:16:27.033Z,100718.27
2019-03-28T02:18:59.383Z,100716.66
2019-03-28T02:21:31.703Z,100717.34
2019-03-28T02:24:04.478Z,100719.03
2019-03-28T02:26:36.856Z,100721.41
2019-03-28T02:29:09.423Z,100724.75
2019-03-28T02:31:42.918Z,100728.75
2019-03-28T02:34:15.643Z,100725.33
2019-03-28T02:36:47.919Z,100722.95
2019-03-28T02:39:20.265Z,100722.30
2019-03-28T02:41:52.718Z,100708.03
2019-03-28T02:44:25.485Z,100710.09
2019-03-28T02:46:57.867Z,100706.50
2019-03-28T02:49:30.713Z,100709.98
2019-03-28T02:52:03.307Z,100704.09
2019-03-28T02:54:35.664Z,100703.33
2019-03-28T02:57:08.193Z,100712.30
2019-03-28T02:59:40.647Z,100707.33
2019-03-28T03:02:12.921Z,100703.62
2019-03-28T03:04:45.403Z,100700.02
2019-03-28T03:07:17.684Z,100692.38
2019-03-28T03:09:51.540Z,100690.30
2019-03-28T03:12:24.482Z,100684.67
2019-03-28T03:14:56.776Z,100680.61
2019-03-28T03:17:29.365Z,100665.09
2019-03-28T03:20:03.791Z,100652.53
2019-03-28T03:22:36.189Z,100652.06
2019-03-28T03:25:08.611Z,100657.09
2019-03-28T03:27:56.346Z,100644.64
2019-03-28T03:30:17.388Z,100659.59
2019-03-28T03:32:49.758Z,100677.97
2019-03-28T03:35:22.075Z,100658.27
2019-03-28T03:37:55.845Z,100679.35
2019-03-28T03:40:28.637Z,100660.41
2019-03-28T03:43:01.038Z,100674.52
2019-03-28T03:45:33.330Z,100696.78
2019-03-28T03:48:06.288Z,100709.91
2019-03-28T03:50:38.690Z,100717.77
2019-03-28T03:53:11.158Z,100718.92
2019-03-28T03:55:43.473Z,100716.03
2019-03-28T03:58:17.925Z,100728.15
2019-03-28T04:00:52.335Z,100717.24
2019-03-28T04:03:24.655Z,100721.50
2019-03-28T04:05:56.940Z,100719.80
2019-03-28T04:08:29.249Z,100712.85
2019-03-28T04:11:01.541Z,100712.85
2019-03-28T04:13:34.252Z,100710.12
2019-03-28T04:16:06.608Z,100721.89
2019-03-28T04:18:39.813Z,100717.21
2019-03-28T04:21:12.534Z,100724.19
2019-03-28T04:23:44.928Z,100721.19
2019-03-28T04:26:17.268Z,100719.13
2019-03-28T04:28:49.645Z,100722.43
2019-03-28T04:31:21.950Z,100726.08
2019-03-28T04:33:54.388Z,100721.13
2019-03-28T04:36:26.747Z,100722.95
2019-03-28T04:38:59.088Z,100722.03
2019-03-28T04:41:31.495Z,100733.10
2019-03-28T04:44:03.813Z,100723.66
2019-03-28T04:46:36.286Z,100732.53
2019-03-28T04:49:08.598Z,100738.61
2019-03-28T04:51:40.923Z,100738.31
2019-03-28T04:54:13.271Z,100747.64
2019-03-28T04:56:45.689Z,100746.14
2019-03-28T04:59:17.997Z,100742.64
2019-03-28T05:02:02.519Z,100740.44
2019-03-28T05:07:40.999Z,100742.67
2019-03-28T05:10:15.426Z,100731.17
2019-03-28T05:12:48.274Z,100730.97
2019-03-28T05:15:22.313Z,100715.30
2019-03-28T05:17:55.200Z,100712.94
2019-03-28T05:20:27.517Z,100705.90
2019-03-28T05:23:01.521Z,100712.48
2019-03-28T05:25:33.844Z,100720.45
2019-03-28T05:28:06.606Z,100734.39
2019-03-28T05:30:39.030Z,100739.86
2019-03-28T05:33:12.442Z,100735.25
2019-03-28T05:35:44.795Z,100731.16
2019-03-28T05:38:17.172Z,100740.36
2019-03-28T05:40:49.538Z,100739.36
2019-03-28T05:43:21.823Z,100741.41
2019-03-28T05:45:54.233Z,100747.97
2019-03-28T05:48:27.315Z,100752.76
2019-03-28T05:50:59.648Z,100749.50
2019-03-28T05:53:32.967Z,100762.00
2019-03-28T05:56:05.402Z,100769.89
2019-03-28T05:58:37.736Z,100775.20
2019-03-28T06:01:10.136Z,100783.63
2019-03-28T06:03:42.633Z,100783.63
2019-03-28T06:06:15.009Z,100771.46
2019-03-28T06:08:47.307Z,100778.94
2019-03-28T06:11:19.662Z,100780.12
2019-03-28T06:13:51.996Z,100787.30
2019-03-28T06:16:24.400Z,100792.77
2019-03-28T06:18:56.707Z,100800.89
2019-03-28T06:21:29.069Z,100801.60
2019-03-28T06:24:01.350Z,100813.05
2019-03-28T06:26:33.763Z,100820.75
2019-03-28T06:29:08.564Z,100819.41
2019-03-28T06:31:40.820Z,100820.52
2019-03-28T06:34:13.342Z,100836.25
2019-03-28T06:36:45.665Z,100831.30
2019-03-28T06:39:18.024Z,100828.72
2019-03-28T06:41:50.320Z,100840.77
2019-03-28T06:44:24.489Z,100829.75
2019-03-28T06:46:56.789Z,100836.62
2019-03-28T06:49:30.490Z,100841.97
2019-03-28T06:52:04.470Z,100839.09
2019-03-28T06:54:38.486Z,100841.20
2019-03-28T06:57:10.885Z,100851.71
2019-03-28T06:59:43.213Z,100858.45
2019-03-28T07:02:15.534Z,100859.59
2019-03-28T07:04:47.897Z,100860.22
2019-03-28T07:07:20.242Z,100862.14
2019-03-28T07:09:52.552Z,100862.58
2019-03-28T07:12:24.957Z,100863.52
2019-03-28T07:14:59.577Z,100865.22
2019-03-28T07:17:31.411Z,100872.49
2019-03-28T07:20:04.845Z,100878.91
2019-03-28T07:22:37.488Z,100865.83
2019-03-28T07:25:09.961Z,100872.41
2019-03-28T07:27:42.310Z,100874.83
2019-03-28T07:30:14.694Z,100879.47
2019-03-28T07:32:47.251Z,100873.98
2019-03-28T07:35:19.593Z,100878.62
2019-03-28T07:37:51.931Z,100886.73
2019-03-28T07:40:25.599Z,100874.15
2019-03-28T07:42:58.423Z,100882.75
2019-03-28T07:45:30.760Z,100884.64
2019-03-28T07:48:04.198Z,100880.42
2019-03-28T07:50:37.554Z,100888.28
2019-03-28T07:53:10.433Z,100887.58
2019-03-28T07:55:42.810Z,100881.31
2019-03-28T07:58:15.464Z,100883.16
2019-03-28T08:00:47.881Z,100873.55
2019-03-28T08:03:20.272Z,100879.83
2019-03-28T08:05:52.590Z,100880.91
2019-03-28T08:08:38.028Z,100881.55
2019-03-28T08:10:59.377Z,100882.13
2019-03-28T08:13:31.692Z,100877.98
2019-03-28T08:16:05.833Z,100885.27
2019-03-28T08:18:38.194Z,100882.31
2019-03-28T08:21:11.126Z,100873.39
2019-03-28T08:23:43.483Z,100873.92
2019-03-28T08:26:15.901Z,100873.73
2019-03-28T08:28:48.205Z,100876.89
2019-03-28T08:31:20.526Z,100881.16
2019-03-28T08:33:53.245Z,100875.87
2019-03-28T08:36:25.612Z,100878.95
2019-03-28T08:38:57.887Z,100881.55
2019-03-28T08:41:31.567Z,100875.45
2019-03-28T08:44:07.288Z,100881.63
2019-03-28T08:46:39.619Z,100880.87
2019-03-28T08:49:11.956Z,100884.17
2019-03-28T08:51:44.322Z,100884.80
2019-03-28T08:54:16.649Z,100878.70
2019-03-28T08:56:50.928Z,100879.79
2019-03-28T08:59:23.318Z,100880.52
2019-03-28T09:01:56.233Z,100881.45
2019-03-28T09:04:28.586Z,100875.03
2019-03-28T09:07:00.934Z,100855.25
2019-03-28T09:09:41.838Z,100866.45
2019-03-28T09:12:14.185Z,100867.25
2019-03-28T09:14:47.866Z,100875.06
2019-03-28T09:17:23.614Z,100874.70
2019-03-28T09:20:01.808Z,100872.06
2019-03-28T09:22:28.743Z,100868.13
2019-03-28T09:25:01.475Z,100864.33
2019-03-28T09:27:35.511Z,100873.00
2019-03-28T09:30:09.970Z,100878.77
2019-03-28T09:32:44.002Z,100875.79
2019-03-28T09:35:20.622Z,100875.06
2019-03-28T09:37:52.979Z,100870.67
2019-03-28T09:40:25.408Z,100871.57
2019-03-28T09:42:59.390Z,100867.98
2019-03-28T09:45:31.914Z,100864.72
2019-03-28T09:48:07.278Z,100870.27
2019-03-28T09:51:06.590Z,100870.11
2019-03-28T09:53:40.226Z,100866.27
2019-03-28T09:56:12.961Z,100863.16
2019-03-28T09:58:45.388Z,100867.16
2019-03-28T10:01:18.917Z,100859.73
2019-03-28T10:03:51.349Z,100868.73
2019-03-28T10:06:23.822Z,100856.41
2019-03-28T10:08:57.787Z,100861.94
2019-03-28T10:11:30.150Z,100863.19
2019-03-28T10:14:02.503Z,100858.32
2019-03-28T10:16:35.861Z,100863.03
2019-03-28T10:19:08.172Z,100867.01
2019-03-28T10:21:40.513Z,100852.89
2019-03-28T10:24:12.869Z,100850.62
2019-03-28T10:26:45.229Z,100849.86
2019-03-28T10:29:17.591Z,100855.18
2019-03-28T10:31:49.998Z,100851.78
2019-03-28T10:34:22.363Z,100848.23
2019-03-28T10:36:54.719Z,100846.65
2019-03-28T10:39:27.036Z,100848.79
2019-03-28T10:41:59.333Z,100844.16
2019-03-28T10:44:31.845Z,100839.63
2019-03-28T10:47:06.190Z,100835.50
2019-03-28T10:49:38.697Z,100833.28
2019-03-28T10:52:12.111Z,100828.03
2019-03-28T10:54:45.087Z,100824.10
2019-03-28T10:57:29.447Z,100820.78
2019-03-28T10:59:51.700Z,100818.94
2019-03-28T11:02:24.277Z,100811.45
2019-03-28T11:04:56.561Z,100811.62
2019-03-28T11:07:29.296Z,100800.27
2019-03-28T11:10:02.101Z,100795.88
2019-03-28T11:12:37.117Z,100792.05
2019-03-28T11:15:09.669Z,100797.20
2019-03-28T11:17:42.094Z,100790.86
2019-03-28T11:20:14.443Z,100777.62
2019-03-28T11:22:46.833Z,100776.20
2019-03-28T11:25:19.204Z,100778.98
2019-03-28T11:27:51.555Z,100773.56
2019-03-28T11:30:23.969Z,100764.97
2019-03-28T11:32:56.279Z,100761.16
2019-03-28T11:35:28.580Z,100761.36
2019-03-28T11:38:00.922Z,100756.86
2019-03-28T11:40:33.304Z,100757.68
2019-03-28T11:43:05.640Z,100753.43
2019-03-28T11:45:38.054Z,100745.37
2019-03-28T11:48:10.732Z,100736.17
2019-03-28T11:50:43.518Z,100736.75
2019-03-28T11:53:15.854Z,100733.73
2019-03-28T11:55:48.931Z,100731.18
2019-03-28T11:58:21.409Z,100724.52
2019-03-28T12:00:53.807Z,100728.41
2019-03-28T12:03:26.137Z,100714.74
2019-03-28T12:05:58.682Z,100722.06
2019-03-28T12:08:31.126Z,100722.30
2019-03-28T12:11:05.298Z,100712.45
2019-03-28T12:13:45.076Z,100711.10
2019-03-28T12:16:13.990Z,100706.33
2019-03-28T12:18:46.413Z,100708.06
2019-03-28T12:21:18.798Z,100704.06
2019-03-28T12:23:51.153Z,100693.89
2019-03-28T12:26:23.746Z,100691.94
2019-03-28T12:28:56.349Z,100683.54
2019-03-28T12:31:33.050Z,100686.06
2019-03-28T12:34:06.534Z,100691.39
2019-03-28T12:36:38.855Z,100685.48
2019-03-28T12:39:15.506Z,100684.30
2019-03-28T12:41:48.384Z,100670.30
2019-03-28T12:44:20.641Z,100669.28
2019-03-28T12:46:53.016Z,100670.38
2019-03-28T12:49:25.293Z,100681.02
2019-03-28T12:51:57.659Z,100671.36
2019-03-28T12:54:29.959Z,100664.31
2019-03-28T12:57:02.344Z,100668.64
2019-03-28T12:59:35.521Z,100661.32
2019-03-28T13:02:08.401Z,100656.81
2019-03-28T13:04:40.689Z,100654.03
2019-03-28T13:07:13.030Z,100657.25
2019-03-28T13:09:45.397Z,100649.81
2019-03-28T13:12:18.718Z,100641.54
2019-03-28T13:14:51.099Z,100641.27
2019-03-28T13:17:26.182Z,100633.33
2019-03-28T13:19:58.748Z,100631.03
2019-03-28T13:22:31.609Z,100627.44
2019-03-28T13:25:03.933Z,100618.12
2019-03-28T13:27:36.710Z,100612.80
2019-03-28T13:30:10.296Z,100621.38
2019-03-28T13:32:42.810Z,100615.63
2019-03-28T13:35:15.128Z,100609.28
2019-03-28T13:37:47.435Z,100607.77
2019-03-28T13:40:19.749Z,100597.84
2019-03-28T13:42:53.150Z,100594.66
2019-03-28T13:45:25.593Z,100585.22
2019-03-28T13:47:58.046Z,100582.02
2019-03-28T13:50:30.407Z,100595.67
2019-03-28T13:53:02.721Z,100587.86
2019-03-28T13:55:36.982Z,100585.81
2019-03-28T13:58:09.822Z,100577.49
2019-03-28T14:00:42.170Z,100566.88
2019-03-28T14:03:14.563Z,100569.00
2019-03-28T14:05:46.912Z,100564.45
2019-03-28T14:08:19.317Z,100561.34
2019-03-28T14:10:52.155Z,100569.66
2019-03-28T14:13:26.397Z,100564.44
2019-03-28T14:15:59.279Z,100559.57
2019-03-28T14:18:31.708Z,100543.83
2019-03-28T14:21:05.022Z,100549.48
2019-03-28T14:23:37.397Z,100551.80
2019-03-28T14:26:09.715Z,100549.25
2019-03-28T14:28:42.041Z,100544.59
2019-03-28T14:31:14.373Z,100541.72
2019-03-28T14:33:46.774Z,100539.31
2019-03-28T14:36:19.399Z,100546.22
2019-03-28T14:38:51.747Z,100543.22
2019-03-28T14:41:24.138Z,100535.09
2019-03-28T14:43:56.504Z,100530.27
2019-03-28T14:46:29.156Z,100523.90
2019-03-28T14:49:01.669Z,100521.21
2019-03-28T14:51:34.086Z,100524.27
2019-03-28T14:54:06.467Z,100517.42
2019-03-28T14:56:39.861Z,100521.19
2019-03-28T14:59:12.521Z,100518.41
2019-03-28T15:01:45.037Z,100507.70
2019-03-28T15:04:17.307Z,100501.95
2019-03-28T15:06:49.661Z,100497.33
2019-03-28T15:09:21.975Z,100493.27
2019-03-28T15:11:54.324Z,100488.56
2019-03-28T15:14:26.626Z,100486.31
2019-03-28T15:16:58.906Z,100489.59
2019-03-28T15:19:31.231Z,100480.52
2019-03-28T15:22:05.968Z,100477.08
2019-03-28T15:24:38.299Z,100477.29
2019-03-28T15:27:10.735Z,100475.41
2019-03-28T15:29:43.032Z,100467.16
2019-03-28T15:32:15.325Z,100459.98
2019-03-28T15:34:47.625Z,100458.83
2019-03-28T15:37:19.981Z,100454.22
2019-03-28T15:39:53.464Z,100456.09
2019-03-28T15:42:27.930Z,100452.50
2019-03-28T15:44:59.683Z,100452.67
2019-03-28T15:47:33.595Z,100450.40
2019-03-28T15:50:05.896Z,100445.98
2019-03-28T15:52:38.200Z,100441.50
2019-03-28T15:55:14.562Z,100445.44
2019-03-28T15:57:45.925Z,100444.64
2019-03-28T16:00:18.205Z,100441.15
2019-03-28T16:02:50.552Z,100445.88
2019-03-28T16:05:22.793Z,100440.93
2019-03-28T16:07:55.082Z,100438.83
2019-03-28T16:10:27.507Z,100430.23
2019-03-28T16:12:59.805Z,100437.56
2019-03-28T16:15:32.111Z,100424.07
2019-03-28T16:18:05.212Z,100425.12
2019-03-28T16:20:37.537Z,100427.64
2019-03-28T16:23:09.927Z,100425.44
2019-03-28T16:25:42.294Z,100428.19
2019-03-28T16:28:14.591Z,100435.55
2019-03-28T16:30:47.458Z,100429.74
2019-03-28T16:33:19.789Z,100425.55
2019-03-28T16:35:52.085Z,100419.25
2019-03-28T16:38:24.356Z,100430.53
2019-03-28T16:40:56.634Z,100423.01
2019-03-28T16:43:30.091Z,100420.41
2019-03-28T16:46:02.467Z,100419.25
2019-03-28T16:48:34.746Z,100420.72
2019-03-28T16:51:07.082Z,100419.14
2019-03-28T16:53:39.392Z,100419.86
2019-03-28T16:56:11.717Z,100413.87
2019-03-28T16:58:44.032Z,100419.51
2019-03-28T17:01:16.406Z,100418.57
2019-03-28T17:03:48.675Z,100424.74
2019-03-28T17:06:20.925Z,100417.63
2019-03-28T17:08:53.424Z,100419.06
2019-03-28T17:11:25.744Z,100420.45
2019-03-28T17:13:58.001Z,100416.03
2019-03-28T17:16:30.374Z,100412.23
2019-03-28T17:19:02.694Z,100410.55
2019-03-28T17:21:34.960Z,100408.19
2019-03-28T17:24:07.264Z,100408.14
2019-03-28T17:26:39.686Z,100406.25
2019-03-28T17:29:11.995Z,100406.14
2019-03-28T17:31:44.974Z,100406.95
2019-03-28T17:34:17.506Z,100410.42
2019-03-28T17:36:49.796Z,100408.33
2019-03-28T17:39:22.052Z,100413.06
2019-03-28T17:41:54.371Z,100406.98
2019-03-28T17:44:26.664Z,100408.30
2019-03-28T17:47:00.104Z,100405.12
2019-03-28T17:49:32.401Z,100410.95
2019-03-28T17:52:06.825Z,100409.85
2019-03-28T17:54:40.940Z,100409.27
2019-03-28T17:57:13.740Z,100405.98
2019-03-28T17:59:46.448Z,100405.03
2019-03-28T18:02:18.747Z,100406.81
2019-03-28T18:04:51.039Z,100403.63
2019-03-28T18:07:23.330Z,100406.91
2019-03-28T18:09:55.959Z,100403.42
2019-03-28T18:12:28.258Z,100404.48
2019-03-28T18:15:00.527Z,100404.85
2019-03-28T18:17:34.555Z,100410.70
2019-03-28T18:20:07.500Z,100411.77
2019-03-28T18:22:39.906Z,100411.71
2019-03-28T18:25:13.977Z,100413.30
2019-03-28T18:27:47.520Z,100411.45
2019-03-28T18:30:20.180Z,100405.92
2019-03-28T18:32:52.589Z,100410.81
2019-03-28T18:35:24.844Z,100413.69
2019-03-28T18:37:57.103Z,100410.25
2019-03-28T18:40:29.405Z,100408.78
2019-03-28T18:43:01.785Z,100412.32
2019-03-28T18:45:34.198Z,100416.06
2019-03-28T18:48:09.159Z,100420.69
2019-03-28T18:50:42.010Z,100422.63
2019-03-28T18:53:14.667Z,100421.45
2019-03-28T18:55:48.891Z,100418.56
2019-03-28T18:58:21.296Z,100423.75
2019-03-28T19:00:53.549Z,100423.77
2019-03-28T19:03:26.215Z,100423.20
2019-03-28T19:05:58.497Z,100432.97
2019-03-28T19:08:30.863Z,100435.58
2019-03-28T19:11:04.025Z,100436.16
2019-03-28T19:13:37.432Z,100436.70
2019-03-28T19:16:09.698Z,100436.81
2019-03-28T19:18:41.980Z,100445.09
2019-03-28T19:21:14.332Z,100440.48
2019-03-28T19:23:46.613Z,100445.45
2019-03-28T19:26:20.126Z,100450.53
2019-03-28T19:28:52.449Z,100447.37
2019-03-28T19:31:24.749Z,100449.00
2019-03-28T19:33:57.053Z,100460.37
2019-03-28T19:36:29.694Z,100471.17
2019-03-28T19:39:02.165Z,100473.39
2019-03-28T19:41:36.195Z,100473.70
2019-03-28T19:44:08.615Z,100476.66
2019-03-28T19:46:40.935Z,100479.28
2019-03-28T19:49:13.218Z,100474.50
2019-03-28T19:51:47.597Z,100474.83
2019-03-28T19:54:20.283Z,100485.17
2019-03-28T19:56:52.608Z,100483.64
2019-03-28T19:59:25.921Z,100487.33
2019-03-28T20:01:59.464Z,100491.39
2019-03-28T20:04:31.817Z,100496.23
2019-03-28T20:07:04.096Z,100491.80
2019-03-28T20:09:38.036Z,100494.95
2019-03-28T20:12:10.335Z,100500.44
2019-03-28T20:14:42.999Z,100510.68
2019-03-28T20:17:15.365Z,100509.46
2019-03-28T20:19:47.803Z,100509.39
2019-03-28T20:22:20.121Z,100507.71
2019-03-28T20:24:52.780Z,100504.96
2019-03-28T20:27:25.113Z,100511.70
2019-03-28T20:29:57.528Z,100512.75
2019-03-28T20:32:29.914Z,100516.22
2019-03-28T20:35:02.821Z,100515.17
2019-03-28T20:37:36.288Z,100519.09
2019-03-28T20:40:09.253Z,100521.01
2019-03-28T20:42:41.562Z,100525.57
2019-03-28T20:45:13.888Z,100521.56
2019-03-28T20:47:46.377Z,100524.02
2019-03-28T20:50:18.756Z,100529.59
2019-03-28T20:52:51.024Z,100528.86
2019-03-28T20:55:23.350Z,100529.58
2019-03-28T20:57:55.654Z,100529.20
2019-03-28T21:00:55.854Z,100529.20
2019-03-28T21:03:28.194Z,100531.40
2019-03-28T21:06:14.309Z,100538.91
2019-03-28T21:08:34.691Z,100536.43
2019-03-28T21:11:08.304Z,100537.58
2019-03-28T21:13:40.670Z,100539.67
2019-03-28T21:16:12.961Z,100541.86
2019-03-28T21:18:45.372Z,100547.86
2019-03-28T21:21:18.083Z,100551.38
2019-03-28T21:23:50.972Z,100551.91
2019-03-28T21:26:23.310Z,100551.48
2019-03-28T21:28:55.755Z,100554.06
2019-03-28T21:31:28.069Z,100554.63
2019-03-28T21:34:00.381Z,100561.84
2019-03-28T21:36:34.094Z,100557.62
2019-03-28T21:39:09.023Z,100562.40
2019-03-28T21:41:41.918Z,100556.62
2019-03-28T21:44:14.282Z,100562.44
2019-03-28T21:46:46.562Z,100562.30
2019-03-28T21:49:18.874Z,100567.04
2019-03-28T21:51:52.299Z,100567.77
2019-03-28T21:54:25.249Z,100566.55
2019-03-28T21:56:57.646Z,100565.38
2019-03-28T21:59:29.942Z,100568.33
2019-03-28T22:02:02.222Z,100567.02
2019-03-28T22:04:35.070Z,100566.45
2019-03-28T22:07:08.814Z,100560.81
2019-03-28T22:09:41.290Z,100561.98
2019-03-28T22:12:13.733Z,100566.06
2019-03-28T22:14:48.262Z,100563.16
2019-03-28T22:17:20.958Z,100570.45
2019-03-28T22:19:53.659Z,100568.70
2019-03-28T22:22:26.462Z,100564.73
2019-03-28T22:24:58.750Z,100564.58
2019-03-28T22:27:31.103Z,100565.20
2019-03-28T22:30:03.398Z,100566.97
2019-03-28T22:32:35.728Z,100573.72
2019-03-28T22:35:08.662Z,100571.20
2019-03-28T22:37:41.000Z,100568.17
2019-03-28T22:40:13.267Z,100561.54
2019-03-28T22:42:45.582Z,100560.45
2019-03-28T22:45:18.134Z,100555.16
2019-03-28T22:47:50.644Z,100552.74
2019-03-28T22:50:23.976Z,100559.20
2019-03-28T22:52:56.582Z,100550.05
2019-03-28T22:55:29.907Z,100557.95
2019-03-28T22:58:02.206Z,100553.92
2019-03-28T23:00:44.962Z,100556.66
2019-03-28T23:03:19.296Z,100556.48
2019-03-28T23:05:51.609Z,100550.28
2019-03-28T23:08:24.153Z,100542.91
2019-03-28T23:10:56.492Z,100545.10
2019-03-28T23:13:28.903Z,100552.29
2019-03-28T23:16:02.916Z,100549.27
2019-03-28T23:18:35.502Z,100553.17
2019-03-28T23:21:09.550Z,100555.25
2019-03-28T23:23:41.853Z,100552.47
2019-03-28T23:26:14.287Z,100562.70
2019-03-28T23:28:46.602Z,100561.01
2019-03-28T23:31:18.929Z,100554.57
2019-03-28T23:33:52.863Z,100553.45
2019-03-28T23:36:25.160Z,100558.19
2019-03-28T23:42:29.438Z,100561.84
2019-03-28T23:45:01.732Z,100563.55
2019-03-28T23:47:33.994Z,100562.47
2019-03-28T23:50:07.698Z,100558.14
2019-03-28T23:52:39.956Z,100558.66
2019-03-28T23:55:13.863Z,100566.56
2019-03-28T23:57:46.262Z,100567.59
